Flight Track Log - Related Links

Times and Time Zones

All times are in EDT time to prevent confusion due to time zone crossing. See the N38GT flight status page for this flight to view local times or setup timezone preferences in your user account.

Time Position Orientation Groundspeed Altitude Reporting Facility
EDT Latitude Longitude Course Direction KTS MPH feet Rate Location/Type
Tue 12:27:54 PM 39.5578 -104.8500 177° South 171 197 6,400  Level FlightAware ADS-B
Tue 12:28:19 PM 39.5386 -104.8482 189° South 196 226 7,600 2,625 Climbing FlightAware ADS-B
Tue 12:28:26 PM 39.5300 -104.8521 219° Southwest 219 252 7,800 750 Climbing FlightAware ADS-B (EGHH / BOH)
Tue 12:28:35 PM 39.5386 -104.8482 228° Southwest 225 259 7,800 947 Level FlightAware ADS-B
Tue 12:28:45 PM 39.5226 -104.8616 252° West 246 283 8,100 947 Climbing FlightAware ADS-B
Tue 12:28:54 PM 39.5176 -104.8849 267° West 264 304 8,100 1,500 Level FlightAware ADS-B (EGHH / BOH)
Tue 12:29:05 PM 39.5205 -104.9007 292° West 264 304 8,600 3,517 Climbing FlightAware ADS-B
Tue 12:29:23 PM 39.5269 -104.9218 291° West 263 303 9,800 2,462 Climbing FlightAware ADS-B
Tue 12:29:44 PM 39.5419 -104.9612 309° West 299 344 10,200 2,291 Climbing FlightAware ADS-B (EGHH / BOH)
Tue 12:30:18 PM 39.5715 -105.0079 309° West 299 344 11,900 2,455 Climbing FlightAware ADS-B (EGHH / BOH)
Tue 12:30:28 PM 39.5770 -105.0169 309° West 310 357 12,000 300 Climbing FlightAware ADS-B
Tue 12:30:58 PM 39.6079 -105.0673 308° West 323 372 12,100 90 Climbing FlightAware ADS-B (EGHH / BOH)
Tue 12:31:35 PM 39.6400 -105.1200 309° West 304 350 12,100 1,583 Level FlightAware ADS-B
Tue 12:32:10 PM 39.6725 -105.1702 311° West 282 325 14,000 3,091 Climbing FlightAware ADS-B
Tue 12:32:41 PM 39.6936 -105.2013 312° West 279 321 15,500 2,870 Climbing FlightAware ADS-B
Tue 12:33:19 PM 39.7310 -105.2543 314° West 279 321 17,300 2,696 Climbing FlightAware ADS-B
Tue 12:33:50 PM 39.7587 -105.2942 300° West 278 320 18,600 2,400 Climbing FlightAware ADS-B (EGHH / BOH)
Tue 12:33:59 PM 39.7626 -105.3087 282° West 275 316 18,900 2,667 Climbing FlightAware ADS-B (EGHH / BOH)
Tue 12:34:08 PM 39.7634 -105.3176 262° West 271 312 19,400 2,609 Climbing FlightAware ADS-B
Tue 12:34:22 PM 39.7595 -105.3423 245° Southwest 271 312 19,900 2,533 Climbing FlightAware ADS-B (EGHH / BOH)
Tue 12:34:53 PM 39.7403 -105.3890 241° Southwest 267 307 21,300 2,156 Climbing FlightAware ADS-B (EGHH / BOH)
Tue 12:35:26 PM 39.7218 -105.4326 241° Southwest 278 320 22,200 1,619 Climbing FlightAware ADS-B
Tue 12:35:56 PM 39.7048 -105.4723 241° Southwest 277 319 23,000 1,700 Climbing FlightAware ADS-B
Tue 12:36:26 PM 39.6891 -105.5089 241° Southwest 283 326 23,900 1,967 Climbing FlightAware ADS-B (EGHH / BOH)
Tue 12:36:57 PM 39.6631 -105.5692 241° Southwest 290 334 25,000 1,810 Climbing FlightAware ADS-B
Tue 12:37:29 PM 39.6429 -105.6159 241° Southwest 299 344 25,800 968 Climbing FlightAware ADS-B
Tue 12:37:59 PM 39.6224 -105.6636 241° Southwest 316 364 26,000 197 Climbing FlightAware ADS-B
Tue 12:38:30 PM 39.5992 -105.7171 241° Southwest 337 388 26,000 277 Level FlightAware ADS-B
Tue 12:39:04 PM 39.5739 -105.7758 241° Southwest 342 394 26,300 1,479 Climbing FlightAware ADS-B
Tue 12:39:43 PM 39.5428 -105.8474 241° Southwest 317 365 27,800 1,826 Climbing FlightAware ADS-B (EGHH / BOH)
Tue 12:40:13 PM 39.5229 -105.8930 241° Southwest 325 374 28,400 1,082 Climbing FlightAware ADS-B (EGHH / BOH)
Tue 12:40:44 PM 39.4990 -105.9480 241° Southwest 325 374 28,900 1,180 Climbing FlightAware ADS-B (EGHH / BOH)
Tue 12:41:14 PM 39.4812 -105.9889 241° Southwest 317 365 29,600 1,300 Climbing FlightAware ADS-B (EGHH / BOH)
Tue 12:41:44 PM 39.4565 -106.0453 241° Southwest 326 375 30,200 1,429 Climbing FlightAware ADS-B (EGHH / BOH)
Tue 12:42:17 PM 39.4314 -106.1029 241° Southwest 318 366 31,100 1,688 Climbing FlightAware ADS-B
Tue 12:42:48 PM 39.4183 -106.1327 241° Southwest 309 356 32,000 805 Climbing FlightAware ADS-B (EGHH / BOH)
Tue 12:57:04 PM 38.7847 -107.4881 235° Southwest 348 400 43,000 561 Climbing Denver Center
Tue 12:58:00 PM 38.7339 -107.6714 232° Southwest  Level FlightAware Approximate
Tue 12:59:00 PM 38.6807 -107.7661 235° Southwest  Level FlightAware Approximate
Tue 01:00:00 PM 38.6285 -107.8617 235° Southwest  Level FlightAware Approximate
Tue 01:01:00 PM 38.5762 -107.9571 235° Southwest  Level FlightAware Approximate
Tue 01:02:00 PM 38.5239 -108.0524 235° Southwest  Level FlightAware Approximate
Tue 01:02:25 PM 38.5049 -108.0269 236° Southwest 305 351 43,000  Level FlightAware ADS-B
Tue 01:03:29 PM 38.4580 -108.1160 236° Southwest 286 329 43,000  Level FlightAware ADS-B
Tue 01:04:33 PM 38.4089 -108.2088 236° Southwest 286 329 43,000  Level FlightAware ADS-B
Tue 01:05:37 PM 38.3611 -108.2989 236° Southwest 298 343 43,000  Level FlightAware ADS-B (KGUC)
Tue 01:06:40 PM 38.3124 -108.3909 236° Southwest 307 353 43,000  Level FlightAware ADS-B
Tue 01:07:12 PM 38.2863 -108.4399 236° Southwest 309 356 43,000  Level FlightAware ADS-B
Tue 01:07:45 PM 38.2600 -108.4893 236° Southwest 316 364 43,000  Level FlightAware ADS-B
Tue 01:08:17 PM 38.2329 -108.5400 236° Southwest 323 372 43,000  Level FlightAware ADS-B (KGUC)
Tue 01:08:50 PM 38.2057 -108.5907 236° Southwest 333 383 43,000  Level FlightAware ADS-B
Tue 01:10:26 PM 38.1200 -108.7506 236° Southwest 352 405 43,000  Level FlightAware ADS-B (KGUC)
Tue 01:10:57 PM 38.0917 -108.8030 236° Southwest 354 407 43,000  Level FlightAware ADS-B (KGUC)
Tue 01:12:31 PM 38.0065 -108.9609 236° Southwest 347 399 43,000  Level FlightAware ADS-B
Tue 01:13:34 PM 37.9502 -109.0649 236° Southwest 321 369 43,000  Level FlightAware ADS-B
Tue 01:14:04 PM 37.9259 -109.1098 236° Southwest 314 361 43,000  Level FlightAware ADS-B
Tue 01:14:36 PM 37.8996 -109.1581 235° Southwest 313 360 43,000  Level FlightAware ADS-B (KGUC)
Tue 01:15:06 PM 37.8744 -109.2043 236° Southwest 319 367 43,000  Level FlightAware ADS-B (KGUC)
Tue 01:15:36 PM 37.8488 -109.2513 236° Southwest 322 371 43,000  Level FlightAware ADS-B (KGUC)
Tue 01:16:12 PM 37.8182 -109.3072 235° Southwest 324 373 43,000  Level FlightAware ADS-B
Tue 01:16:46 PM 37.7905 -109.3578 235° Southwest 329 379 43,000  Level FlightAware ADS-B
Tue 01:17:17 PM 37.7624 -109.4091 235° Southwest 334 384 43,000  Level FlightAware ADS-B
Tue 01:17:56 PM 37.7279 -109.4720 235° Southwest 335 386 43,000  Level FlightAware ADS-B (KGUC)
Tue 01:18:30 PM 37.6980 -109.5263 235° Southwest 338 389 43,000  Level FlightAware ADS-B
Tue 01:19:08 PM 37.6643 -109.5875 235° Southwest 336 387 43,000  Level FlightAware ADS-B
Tue 01:19:38 PM 37.6389 -109.6336 235° Southwest 337 388 43,000  Level FlightAware ADS-B
Tue 01:20:08 PM 37.6112 -109.6836 235° Southwest 335 386 43,000  Level FlightAware ADS-B
Tue 01:20:59 PM 37.5663 -109.7648 235° Southwest 344 396 43,000  Level FlightAware ADS-B
Tue 01:21:31 PM 37.5354 -109.8204 235° Southwest 343 395 43,000  Level FlightAware ADS-B
Tue 01:22:06 PM 37.5049 -109.8754 235° Southwest 343 395 43,000  Level FlightAware ADS-B
Tue 01:22:44 PM 37.4706 -109.9370 235° Southwest 345 397 43,000  Level FlightAware ADS-B
Tue 01:23:17 PM 37.4420 -109.9883 235° Southwest 340 391 43,000  Level FlightAware ADS-B
Tue 01:23:49 PM 37.4114 -110.0431 235° Southwest 336 387 43,000  Level FlightAware ADS-B
Tue 01:24:24 PM 37.3818 -110.0960 235° Southwest 333 383 43,000  Level FlightAware ADS-B
Tue 01:25:25 PM 37.3266 -110.1944 235° Southwest 327 376 43,000  Level FlightAware ADS-B
Tue 01:26:19 PM 37.2795 -110.2781 235° Southwest 326 375 43,000  Level FlightAware ADS-B
Tue 01:27:26 PM 37.2225 -110.3794 235° Southwest 324 373 43,000  Level FlightAware ADS-B (KGUC)
Tue 01:28:19 PM 37.1758 -110.4620 235° Southwest 325 374 43,000  Level FlightAware ADS-B
Tue 01:29:20 PM 37.1234 -110.5544 235° Southwest 321 369 43,000  Level FlightAware ADS-B
Tue 01:30:24 PM 37.0692 -110.6498 235° Southwest 336 387 43,000  Level FlightAware ADS-B
Tue 01:31:24 PM 37.0172 -110.7409 235° Southwest 331 381 43,000  Level FlightAware ADS-B
Tue 01:33:49 PM 36.8915 -110.9603 234° Southwest 342 394 43,000  Level FlightAware ADS-B (KGUC)
Tue 01:34:33 PM 36.8404 -111.0493 234° Southwest 346 398 43,000  Level FlightAware ADS-B
Tue 01:36:16 PM 36.7681 -111.1745 234° Southwest 338 389 43,000  Level FlightAware ADS-B (KGUC)
Tue 01:37:05 PM 36.7021 -111.2885 234° Southwest 321 369 43,000  Level FlightAware ADS-B
Tue 01:41:32 PM 36.4881 -111.6554 234° Southwest 321 369 43,000  Level FlightAware ADS-B
Tue 01:42:22 PM 36.4322 -111.7497 234° Southwest 319 367 43,000  Level Los Angeles Center
Tue 01:43:24 PM 36.3786 -111.8389 233° Southwest 321 369 43,000  Level Los Angeles Center
Tue 01:44:27 PM 36.3258 -111.9294 234° Southwest 321 369 43,000  Level Los Angeles Center
Tue 01:50:29 PM 36.4881 -111.6554 233° Southwest 350 403 43,000  Level FlightAware ADS-B
Tue 01:55:19 PM 35.7057 -112.9644 233° Southwest 329 379 43,000  Level FlightAware ADS-B
Tue 01:55:49 PM 35.6794 -113.0075 233° Southwest 331 381 43,000  Level FlightAware ADS-B
Tue 01:56:53 PM 35.6172 -113.1078 233° Southwest 331 381 43,000  Level Los Angeles Center
Tue 01:57:55 PM 35.5597 -113.2025 233° Southwest 342 394 43,000  Level Los Angeles Center
Tue 01:58:57 PM 35.5075 -113.2886 233° Southwest 343 395 43,000  Level Los Angeles Center
Tue 01:59:59 PM 35.4397 -113.3983 233° Southwest 341 392 43,000  Level Los Angeles Center
Tue 02:01:02 PM 35.3828 -113.4892 232° Southwest 340 391 43,000  Level Los Angeles Center
Tue 02:02:04 PM 35.3250 -113.5839 233° Southwest 347 399 43,000  Level Los Angeles Center
Tue 02:03:06 PM 35.2656 -113.6792 233° Southwest 351 404 43,000  Level Los Angeles Center
Tue 02:04:08 PM 35.2067 -113.7739 233° Southwest 351 404 43,000 -576 Level Los Angeles Center
Tue 02:05:11 PM 35.1386 -113.8842 233° Southwest 341 392 41,800 -1,008 Descending Los Angeles Center
Tue 02:06:13 PM 35.0878 -113.9642 232° Southwest 327 376 40,900 -1,210 Descending Los Angeles Center
Tue 02:07:15 PM 35.0314 -114.0536 232° Southwest 331 381 39,300 -1,742 Descending Los Angeles Center
Tue 02:08:17 PM 34.9589 -114.1683 232° Southwest 350 403 37,300 -1,597 Descending Los Angeles Center
Tue 02:09:19 PM 34.8972 -114.2664 233° Southwest 358 412 36,000 -624 Descending Los Angeles Center
Tue 02:10:22 PM 34.8383 -114.3586 232° Southwest 352 405 36,000  Level Los Angeles Center
Tue 02:11:23 PM 34.7789 -114.4506 232° Southwest 344 396 36,000  Level Los Angeles Center
Tue 02:12:25 PM 34.7164 -114.5475 232° Southwest 356 410 36,000 -48 Level Los Angeles Center
Tue 02:13:28 PM 34.6525 -114.6439 231° Southwest 365 420 35,900 -1,248 Descending Los Angeles Center
Tue 02:14:30 PM 34.5764 -114.7597 231° Southwest 367 422 33,400 -2,274 Descending Los Angeles Center
Tue 02:15:32 PM 34.5117 -114.8553 231° Southwest 367 422 31,200 -2,081 Descending Los Angeles Center
Tue 02:16:34 PM 34.4492 -114.9500 231° Southwest 366 421 29,100 -2,032 Descending Los Angeles Center
Tue 02:17:36 PM 34.3881 -115.0425 231° Southwest 358 412 27,000 -1,984 Descending Los Angeles Center
Tue 02:18:38 PM 34.3269 -115.1314 230° Southwest 351 404 25,000 -1,824 Descending Los Angeles Center
Tue 02:19:41 PM 34.2683 -115.2211 232° Southwest 343 395 23,200 -960 Descending Los Angeles Center
Tue 02:20:43 PM 34.1997 -115.3228 231° Southwest 330 380 23,000 -919 Descending Los Angeles Center
Tue 02:21:45 PM 34.1378 -115.4125 230° Southwest 343 395 21,300 -1,680 Descending Los Angeles Center
Tue 02:22:48 PM 34.0803 -115.4994 231° Southwest 339 390 19,500 -1,920 Descending Los Angeles Center
Tue 02:23:50 PM 34.0236 -115.5836 231° Southwest 330 380 17,300 -2,129 Descending Los Angeles Center

Login

Don't have an account? Register now (free) for customized features, flight alerts, and more!